sensor_id;sensor_type;location;lat;lon;timestamp;temperature;humidity
19060;DHT22;9663;48.996;8.334;2024-03-07T00:00:12;11.90;63.40
19060;DHT22;9663;48.996;8.334;2024-03-07T00:02:47;11.90;63.60
19060;DHT22;9663;48.996;8.334;2024-03-07T00:05:18;11.90;63.50
19060;DHT22;9663;48.996;8.334;2024-03-07T00:07:45;11.90;63.50
19060;DHT22;9663;48.996;8.334;2024-03-07T00:10:11;11.90;63.50
19060;DHT22;9663;48.996;8.334;2024-03-07T00:12:38;11.80;63.50
19060;DHT22;9663;48.996;8.334;2024-03-07T00:15:10;11.80;63.60
19060;DHT22;9663;48.996;8.334;2024-03-07T00:17:38;11.80;63.70
19060;DHT22;9663;48.996;8.334;2024-03-07T00:20:05;11.80;63.60
19060;DHT22;9663;48.996;8.334;2024-03-07T00:22:35;11.80;63.70
19060;DHT22;9663;48.996;8.334;2024-03-07T00:25:02;11.80;63.70
19060;DHT22;9663;48.996;8.334;2024-03-07T00:27:31;11.90;63.80
19060;DHT22;9663;48.996;8.334;2024-03-07T00:29:58;11.80;63.70
19060;DHT22;9663;48.996;8.334;2024-03-07T00:32:24;11.90;63.80
19060;DHT22;9663;48.996;8.334;2024-03-07T00:34:50;11.80;63.70
19060;DHT22;9663;48.996;8.334;2024-03-07T00:37:16;11.80;63.70
19060;DHT22;9663;48.996;8.334;2024-03-07T00:39:42;11.80;63.80
19060;DHT22;9663;48.996;8.334;2024-03-07T00:42:08;11.80;63.80
19060;DHT22;9663;48.996;8.334;2024-03-07T00:44:34;11.80;63.80
19060;DHT22;9663;48.996;8.334;2024-03-07T00:47:01;11.80;63.80
19060;DHT22;9663;48.996;8.334;2024-03-07T00:49:30;11.80;63.70
19060;DHT22;9663;48.996;8.334;2024-03-07T00:51:57;11.80;63.80
19060;DHT22;9663;48.996;8.334;2024-03-07T00:54:23;11.80;63.80
19060;DHT22;9663;48.996;8.334;2024-03-07T00:56:49;11.80;63.80
19060;DHT22;9663;48.996;8.334;2024-03-07T00:59:15;11.80;63.80
19060;DHT22;9663;48.996;8.334;2024-03-07T01:01:42;11.80;63.80
19060;DHT22;9663;48.996;8.334;2024-03-07T01:04:08;11.70;63.80
19060;DHT22;9663;48.996;8.334;2024-03-07T01:06:35;11.70;63.80
19060;DHT22;9663;48.996;8.334;2024-03-07T01:09:06;11.70;63.80
19060;DHT22;9663;48.996;8.334;2024-03-07T01:11:39;11.70;63.80
19060;DHT22;9663;48.996;8.334;2024-03-07T01:14:08;11.70;63.80
19060;DHT22;9663;48.996;8.334;2024-03-07T01:16:34;11.60;63.70
19060;DHT22;9663;48.996;8.334;2024-03-07T01:19:00;11.60;63.80
19060;DHT22;9663;48.996;8.334;2024-03-07T01:21:26;11.60;63.80
19060;DHT22;9663;48.996;8.334;2024-03-07T01:23:52;11.60;63.90
19060;DHT22;9663;48.996;8.334;2024-03-07T01:26:18;11.50;63.80
19060;DHT22;9663;48.996;8.334;2024-03-07T01:28:43;11.50;63.90
19060;DHT22;9663;48.996;8.334;2024-03-07T01:31:09;11.50;63.90
19060;DHT22;9663;48.996;8.334;2024-03-07T01:33:35;11.40;63.90
19060;DHT22;9663;48.996;8.334;2024-03-07T01:36:01;11.40;64.70
19060;DHT22;9663;48.996;8.334;2024-03-07T01:38:27;11.40;63.90
19060;DHT22;9663;48.996;8.334;2024-03-07T01:40:53;11.40;63.80
19060;DHT22;9663;48.996;8.334;2024-03-07T01:43:20;11.40;63.80
19060;DHT22;9663;48.996;8.334;2024-03-07T01:45:46;11.30;63.70
19060;DHT22;9663;48.996;8.334;2024-03-07T01:48:25;11.30;63.80
19060;DHT22;9663;48.996;8.334;2024-03-07T01:50:52;11.30;63.80
19060;DHT22;9663;48.996;8.334;2024-03-07T01:53:18;11.30;63.70
19060;DHT22;9663;48.996;8.334;2024-03-07T01:55:44;11.30;63.70
19060;DHT22;9663;48.996;8.334;2024-03-07T01:58:14;11.20;63.60
19060;DHT22;9663;48.996;8.334;2024-03-07T02:00:43;11.20;63.60
19060;DHT22;9663;48.996;8.334;2024-03-07T02:03:09;11.20;63.60
19060;DHT22;9663;48.996;8.334;2024-03-07T02:05:35;11.20;63.60
19060;DHT22;9663;48.996;8.334;2024-03-07T02:08:01;11.20;63.60
19060;DHT22;9663;48.996;8.334;2024-03-07T02:10:27;11.20;63.60
19060;DHT22;9663;48.996;8.334;2024-03-07T02:12:53;11.20;63.60
19060;DHT22;9663;48.996;8.334;2024-03-07T02:15:18;11.20;63.60
19060;DHT22;9663;48.996;8.334;2024-03-07T02:17:45;11.20;63.50
19060;DHT22;9663;48.996;8.334;2024-03-07T02:20:11;11.20;63.50
19060;DHT22;9663;48.996;8.334;2024-03-07T02:22:38;11.20;63.40
19060;DHT22;9663;48.996;8.334;2024-03-07T02:25:07;11.20;63.30
19060;DHT22;9663;48.996;8.334;2024-03-07T02:27:39;11.20;63.20
19060;DHT22;9663;48.996;8.334;2024-03-07T02:30:05;11.20;63.20
19060;DHT22;9663;48.996;8.334;2024-03-07T02:32:34;11.10;63.10
19060;DHT22;9663;48.996;8.334;2024-03-07T02:35:02;11.10;63.10
19060;DHT22;9663;48.996;8.334;2024-03-07T02:37:28;11.10;63.20
19060;DHT22;9663;48.996;8.334;2024-03-07T02:39:54;11.10;63.20
19060;DHT22;9663;48.996;8.334;2024-03-07T02:42:20;11.10;63.20
19060;DHT22;9663;48.996;8.334;2024-03-07T02:44:46;11.10;63.10
19060;DHT22;9663;48.996;8.334;2024-03-07T02:47:12;11.10;63.10
19060;DHT22;9663;48.996;8.334;2024-03-07T02:49:38;11.00;63.80
19060;DHT22;9663;48.996;8.334;2024-03-07T02:52:03;11.00;63.00
19060;DHT22;9663;48.996;8.334;2024-03-07T02:54:33;11.00;63.00
19060;DHT22;9663;48.996;8.334;2024-03-07T02:56:59;11.00;63.10
19060;DHT22;9663;48.996;8.334;2024-03-07T02:59:25;11.00;63.10
19060;DHT22;9663;48.996;8.334;2024-03-07T03:01:51;10.90;63.00
19060;DHT22;9663;48.996;8.334;2024-03-07T03:04:17;10.90;63.00
19060;DHT22;9663;48.996;8.334;2024-03-07T03:06:43;10.90;63.00
19060;DHT22;9663;48.996;8.334;2024-03-07T03:09:09;10.80;63.00
19060;DHT22;9663;48.996;8.334;2024-03-07T03:11:38;10.80;63.00
19060;DHT22;9663;48.996;8.334;2024-03-07T03:14:04;10.70;62.90
19060;DHT22;9663;48.996;8.334;2024-03-07T03:16:30;10.60;62.90
19060;DHT22;9663;48.996;8.334;2024-03-07T03:18:56;10.50;62.90
19060;DHT22;9663;48.996;8.334;2024-03-07T03:21:23;10.50;62.90
19060;DHT22;9663;48.996;8.334;2024-03-07T03:23:49;10.40;62.90
19060;DHT22;9663;48.996;8.334;2024-03-07T03:26:14;10.30;62.90
19060;DHT22;9663;48.996;8.334;2024-03-07T03:28:41;10.30;63.00
19060;DHT22;9663;48.996;8.334;2024-03-07T03:31:07;10.20;63.00
19060;DHT22;9663;48.996;8.334;2024-03-07T03:33:34;10.10;63.00
19060;DHT22;9663;48.996;8.334;2024-03-07T03:36:00;10.00;63.10
19060;DHT22;9663;48.996;8.334;2024-03-07T03:38:26;10.00;63.10
19060;DHT22;9663;48.996;8.334;2024-03-07T03:40:52;9.90;63.10
19060;DHT22;9663;48.996;8.334;2024-03-07T03:43:17;9.80;63.10
19060;DHT22;9663;48.996;8.334;2024-03-07T03:45:44;9.80;63.20
19060;DHT22;9663;48.996;8.334;2024-03-07T03:48:10;9.70;63.10
19060;DHT22;9663;48.996;8.334;2024-03-07T03:50:36;9.60;63.20
19060;DHT22;9663;48.996;8.334;2024-03-07T03:53:02;9.60;63.30
19060;DHT22;9663;48.996;8.334;2024-03-07T03:55:29;9.50;63.30
19060;DHT22;9663;48.996;8.334;2024-03-07T03:57:54;9.50;63.40
19060;DHT22;9663;48.996;8.334;2024-03-07T04:00:20;9.40;63.40
19060;DHT22;9663;48.996;8.334;2024-03-07T04:02:48;9.40;63.40
19060;DHT22;9663;48.996;8.334;2024-03-07T04:05:15;9.30;63.40
19060;DHT22;9663;48.996;8.334;2024-03-07T04:07:42;9.20;63.40
19060;DHT22;9663;48.996;8.334;2024-03-07T04:10:09;9.20;63.40
19060;DHT22;9663;48.996;8.334;2024-03-07T04:12:37;9.20;63.50
19060;DHT22;9663;48.996;8.334;2024-03-07T04:15:07;9.10;63.50
19060;DHT22;9663;48.996;8.334;2024-03-07T04:17:35;9.10;63.60
19060;DHT22;9663;48.996;8.334;2024-03-07T04:20:06;9.00;63.50
19060;DHT22;9663;48.996;8.334;2024-03-07T04:22:33;9.00;63.50
19060;DHT22;9663;48.996;8.334;2024-03-07T04:25:00;8.90;63.50
19060;DHT22;9663;48.996;8.334;2024-03-07T04:27:27;8.90;63.60
19060;DHT22;9663;48.996;8.334;2024-03-07T04:29:53;8.90;63.60
19060;DHT22;9663;48.996;8.334;2024-03-07T04:32:18;8.80;63.60
19060;DHT22;9663;48.996;8.334;2024-03-07T04:34:44;8.80;63.60
19060;DHT22;9663;48.996;8.334;2024-03-07T04:37:10;8.70;63.60
19060;DHT22;9663;48.996;8.334;2024-03-07T04:39:38;8.70;63.70
19060;DHT22;9663;48.996;8.334;2024-03-07T04:42:06;8.70;63.80
19060;DHT22;9663;48.996;8.334;2024-03-07T04:44:34;8.70;63.80
19060;DHT22;9663;48.996;8.334;2024-03-07T04:47:03;8.60;63.80
19060;DHT22;9663;48.996;8.334;2024-03-07T04:49:30;8.60;63.80
19060;DHT22;9663;48.996;8.334;2024-03-07T04:51:58;8.60;63.80
19060;DHT22;9663;48.996;8.334;2024-03-07T04:54:27;8.50;63.80
19060;DHT22;9663;48.996;8.334;2024-03-07T04:56:54;8.50;63.90
19060;DHT22;9663;48.996;8.334;2024-03-07T04:59:20;8.40;63.80
19060;DHT22;9663;48.996;8.334;2024-03-07T05:01:48;8.40;63.90
19060;DHT22;9663;48.996;8.334;2024-03-07T05:04:15;8.40;63.90
19060;DHT22;9663;48.996;8.334;2024-03-07T05:06:42;8.30;63.90
19060;DHT22;9663;48.996;8.334;2024-03-07T05:09:09;8.30;63.90
19060;DHT22;9663;48.996;8.334;2024-03-07T05:11:47;8.30;64.00
19060;DHT22;9663;48.996;8.334;2024-03-07T05:14:12;8.20;63.90
19060;DHT22;9663;48.996;8.334;2024-03-07T05:16:38;8.20;64.00
19060;DHT22;9663;48.996;8.334;2024-03-07T05:19:04;8.20;64.10
19060;DHT22;9663;48.996;8.334;2024-03-07T05:21:30;8.10;64.10
19060;DHT22;9663;48.996;8.334;2024-03-07T05:24:02;8.10;64.00
19060;DHT22;9663;48.996;8.334;2024-03-07T05:26:28;8.10;64.00
19060;DHT22;9663;48.996;8.334;2024-03-07T05:29:07;8.10;64.10
19060;DHT22;9663;48.996;8.334;2024-03-07T05:31:35;8.00;64.00
19060;DHT22;9663;48.996;8.334;2024-03-07T05:34:03;8.00;64.10
19060;DHT22;9663;48.996;8.334;2024-03-07T05:36:33;8.00;64.00
19060;DHT22;9663;48.996;8.334;2024-03-07T05:39:09;7.90;64.00
19060;DHT22;9663;48.996;8.334;2024-03-07T05:41:40;7.90;64.00
19060;DHT22;9663;48.996;8.334;2024-03-07T05:44:07;7.90;64.00
19060;DHT22;9663;48.996;8.334;2024-03-07T05:46:37;7.90;64.00
19060;DHT22;9663;48.996;8.334;2024-03-07T05:49:07;7.90;64.00
19060;DHT22;9663;48.996;8.334;2024-03-07T05:51:33;7.90;64.10
19060;DHT22;9663;48.996;8.334;2024-03-07T05:53:59;7.80;64.00
19060;DHT22;9663;48.996;8.334;2024-03-07T05:56:25;7.80;64.00
19060;DHT22;9663;48.996;8.334;2024-03-07T05:58:50;7.80;64.00
19060;DHT22;9663;48.996;8.334;2024-03-07T06:01:17;7.80;64.10
19060;DHT22;9663;48.996;8.334;2024-03-07T06:03:44;7.70;64.00
19060;DHT22;9663;48.996;8.334;2024-03-07T06:06:11;7.70;64.10
19060;DHT22;9663;48.996;8.334;2024-03-07T06:08:37;7.70;64.10
19060;DHT22;9663;48.996;8.334;2024-03-07T06:11:07;7.70;64.10
19060;DHT22;9663;48.996;8.334;2024-03-07T06:13:33;7.70;64.10
19060;DHT22;9663;48.996;8.334;2024-03-07T06:15:59;7.60;64.10
19060;DHT22;9663;48.996;8.334;2024-03-07T06:18:29;7.60;64.10
19060;DHT22;9663;48.996;8.334;2024-03-07T06:20:56;7.60;64.10
19060;DHT22;9663;48.996;8.334;2024-03-07T06:23:22;7.60;64.10
19060;DHT22;9663;48.996;8.334;2024-03-07T06:25:48;7.60;64.20
19060;DHT22;9663;48.996;8.334;2024-03-07T06:28:17;7.60;64.30
19060;DHT22;9663;48.996;8.334;2024-03-07T06:30:46;7.60;64.30
19060;DHT22;9663;48.996;8.334;2024-03-07T06:33:13;7.60;64.30
19060;DHT22;9663;48.996;8.334;2024-03-07T06:35:40;7.60;64.30
19060;DHT22;9663;48.996;8.334;2024-03-07T06:38:07;7.70;64.40
19060;DHT22;9663;48.996;8.334;2024-03-07T06:40:36;7.70;64.40
19060;DHT22;9663;48.996;8.334;2024-03-07T06:43:03;7.70;64.40
19060;DHT22;9663;48.996;8.334;2024-03-07T06:45:30;7.70;64.30
19060;DHT22;9663;48.996;8.334;2024-03-07T06:47:56;7.80;64.30
19060;DHT22;9663;48.996;8.334;2024-03-07T06:50:22;7.80;64.30
19060;DHT22;9663;48.996;8.334;2024-03-07T06:52:48;7.80;64.30
19060;DHT22;9663;48.996;8.334;2024-03-07T06:55:17;7.90;64.30
19060;DHT22;9663;48.996;8.334;2024-03-07T06:57:44;7.90;64.30
19060;DHT22;9663;48.996;8.334;2024-03-07T07:00:11;7.90;64.20
19060;DHT22;9663;48.996;8.334;2024-03-07T07:02:38;7.90;64.10
19060;DHT22;9663;48.996;8.334;2024-03-07T07:05:07;8.00;64.10
19060;DHT22;9663;48.996;8.334;2024-03-07T07:07:39;8.00;64.10
19060;DHT22;9663;48.996;8.334;2024-03-07T07:10:09;8.00;64.10
19060;DHT22;9663;48.996;8.334;2024-03-07T07:12:48;8.10;64.20
19060;DHT22;9663;48.996;8.334;2024-03-07T07:15:18;8.10;64.10
19060;DHT22;9663;48.996;8.334;2024-03-07T07:17:46;8.20;64.10
19060;DHT22;9663;48.996;8.334;2024-03-07T07:20:16;8.20;64.10
19060;DHT22;9663;48.996;8.334;2024-03-07T07:22:44;8.30;64.10
19060;DHT22;9663;48.996;8.334;2024-03-07T07:25:12;8.30;64.00
19060;DHT22;9663;48.996;8.334;2024-03-07T07:27:52;8.40;64.00
19060;DHT22;9663;48.996;8.334;2024-03-07T07:30:20;8.40;63.90
19060;DHT22;9663;48.996;8.334;2024-03-07T07:32:51;8.50;63.90
19060;DHT22;9663;48.996;8.334;2024-03-07T07:35:17;8.60;63.80
19060;DHT22;9663;48.996;8.334;2024-03-07T07:37:45;8.60;63.80
19060;DHT22;9663;48.996;8.334;2024-03-07T07:40:13;8.70;63.80
19060;DHT22;9663;48.996;8.334;2024-03-07T07:42:47;8.80;63.80
19060;DHT22;9663;48.996;8.334;2024-03-07T07:45:14;8.90;63.60
19060;DHT22;9663;48.996;8.334;2024-03-07T07:47:45;8.90;63.40
19060;DHT22;9663;48.996;8.334;2024-03-07T07:50:24;9.00;63.50
19060;DHT22;9663;48.996;8.334;2024-03-07T07:52:54;9.00;63.30
19060;DHT22;9663;48.996;8.334;2024-03-07T07:55:24;9.10;63.30
19060;DHT22;9663;48.996;8.334;2024-03-07T07:58:00;9.20;63.30
19060;DHT22;9663;48.996;8.334;2024-03-07T08:00:32;9.20;63.00
19060;DHT22;9663;48.996;8.334;2024-03-07T08:03:04;9.30;63.10
19060;DHT22;9663;48.996;8.334;2024-03-07T08:05:36;9.40;63.10
19060;DHT22;9663;48.996;8.334;2024-03-07T08:08:04;9.50;63.00
19060;DHT22;9663;48.996;8.334;2024-03-07T08:10:32;9.60;62.90
19060;DHT22;9663;48.996;8.334;2024-03-07T08:13:01;9.60;62.60
19060;DHT22;9663;48.996;8.334;2024-03-07T08:15:29;9.70;62.60
19060;DHT22;9663;48.996;8.334;2024-03-07T08:17:56;9.80;62.70
19060;DHT22;9663;48.996;8.334;2024-03-07T08:20:24;9.90;62.50
19060;DHT22;9663;48.996;8.334;2024-03-07T08:22:52;10.00;62.30
19060;DHT22;9663;48.996;8.334;2024-03-07T08:25:20;10.10;62.00
19060;DHT22;9663;48.996;8.334;2024-03-07T08:27:51;10.10;62.00
19060;DHT22;9663;48.996;8.334;2024-03-07T08:30:18;10.20;62.00
19060;DHT22;9663;48.996;8.334;2024-03-07T08:32:56;10.30;61.90
19060;DHT22;9663;48.996;8.334;2024-03-07T08:35:23;10.40;61.70
19060;DHT22;9663;48.996;8.334;2024-03-07T08:37:51;10.40;61.60
19060;DHT22;9663;48.996;8.334;2024-03-07T08:40:24;10.50;61.70
19060;DHT22;9663;48.996;8.334;2024-03-07T08:42:52;10.60;61.60
19060;DHT22;9663;48.996;8.334;2024-03-07T08:45:22;10.60;61.50
19060;DHT22;9663;48.996;8.334;2024-03-07T08:47:53;10.70;61.50
19060;DHT22;9663;48.996;8.334;2024-03-07T08:50:20;10.80;61.50
19060;DHT22;9663;48.996;8.334;2024-03-07T08:52:47;11.00;61.60
19060;DHT22;9663;48.996;8.334;2024-03-07T08:55:14;11.10;61.60
19060;DHT22;9663;48.996;8.334;2024-03-07T08:57:42;11.20;61.30
19060;DHT22;9663;48.996;8.334;2024-03-07T09:00:12;11.30;61.20
19060;DHT22;9663;48.996;8.334;2024-03-07T09:02:59;11.40;61.00
19060;DHT22;9663;48.996;8.334;2024-03-07T09:05:28;11.50;60.90
19060;DHT22;9663;48.996;8.334;2024-03-07T09:07:55;11.50;60.50
19060;DHT22;9663;48.996;8.334;2024-03-07T09:10:21;11.70;60.30
19060;DHT22;9663;48.996;8.334;2024-03-07T09:12:51;11.70;60.20
19060;DHT22;9663;48.996;8.334;2024-03-07T09:15:17;11.80;60.10
19060;DHT22;9663;48.996;8.334;2024-03-07T09:17:44;11.90;59.80
19060;DHT22;9663;48.996;8.334;2024-03-07T09:20:11;11.90;60.00
19060;DHT22;9663;48.996;8.334;2024-03-07T09:22:43;12.00;59.90
19060;DHT22;9663;48.996;8.334;2024-03-07T09:25:10;12.10;59.30
19060;DHT22;9663;48.996;8.334;2024-03-07T09:27:38;12.10;59.40
19060;DHT22;9663;48.996;8.334;2024-03-07T09:30:05;12.20;59.40
19060;DHT22;9663;48.996;8.334;2024-03-07T09:32:40;12.20;59.20
19060;DHT22;9663;48.996;8.334;2024-03-07T09:35:08;12.20;59.30
19060;DHT22;9663;48.996;8.334;2024-03-07T09:37:39;12.30;59.10
19060;DHT22;9663;48.996;8.334;2024-03-07T09:40:08;12.40;59.10
19060;DHT22;9663;48.996;8.334;2024-03-07T09:42:49;12.40;59.00
19060;DHT22;9663;48.996;8.334;2024-03-07T09:45:19;12.50;58.70
19060;DHT22;9663;48.996;8.334;2024-03-07T09:47:48;12.60;58.90
19060;DHT22;9663;48.996;8.334;2024-03-07T09:50:19;12.60;58.90
19060;DHT22;9663;48.996;8.334;2024-03-07T09:52:50;12.70;58.60
19060;DHT22;9663;48.996;8.334;2024-03-07T09:55:18;12.70;58.70
19060;DHT22;9663;48.996;8.334;2024-03-07T09:57:48;12.80;58.40
19060;DHT22;9663;48.996;8.334;2024-03-07T10:00:20;12.80;58.30
19060;DHT22;9663;48.996;8.334;2024-03-07T10:02:57;12.90;58.60
19060;DHT22;9663;48.996;8.334;2024-03-07T10:05:27;12.90;58.50
19060;DHT22;9663;48.996;8.334;2024-03-07T10:07:53;13.00;58.60
19060;DHT22;9663;48.996;8.334;2024-03-07T10:10:19;13.10;58.40
19060;DHT22;9663;48.996;8.334;2024-03-07T10:12:47;13.20;58.30
19060;DHT22;9663;48.996;8.334;2024-03-07T10:15:14;13.30;58.20
19060;DHT22;9663;48.996;8.334;2024-03-07T10:17:42;13.30;58.10
19060;DHT22;9663;48.996;8.334;2024-03-07T10:20:12;13.40;57.80
19060;DHT22;9663;48.996;8.334;2024-03-07T10:22:40;13.40;57.70
19060;DHT22;9663;48.996;8.334;2024-03-07T10:25:06;13.60;58.10
19060;DHT22;9663;48.996;8.334;2024-03-07T10:27:36;13.60;58.10
19060;DHT22;9663;48.996;8.334;2024-03-07T10:30:04;13.70;57.80
19060;DHT22;9663;48.996;8.334;2024-03-07T10:32:33;13.90;57.70
19060;DHT22;9663;48.996;8.334;2024-03-07T10:34:58;14.00;57.70
19060;DHT22;9663;48.996;8.334;2024-03-07T10:37:24;14.10;57.30
19060;DHT22;9663;48.996;8.334;2024-03-07T10:39:51;14.20;57.20
19060;DHT22;9663;48.996;8.334;2024-03-07T10:42:21;14.20;57.10
19060;DHT22;9663;48.996;8.334;2024-03-07T10:44:59;14.30;57.00
19060;DHT22;9663;48.996;8.334;2024-03-07T10:47:31;14.40;57.00
19060;DHT22;9663;48.996;8.334;2024-03-07T10:59:18;14.90;56.10
19060;DHT22;9663;48.996;8.334;2024-03-07T11:04:58;15.00;55.90
19060;DHT22;9663;48.996;8.334;2024-03-07T11:07:25;14.90;56.00
19060;DHT22;9663;48.996;8.334;2024-03-07T11:09:53;14.90;56.00
19060;DHT22;9663;48.996;8.334;2024-03-07T11:12:24;14.90;55.90
19060;DHT22;9663;48.996;8.334;2024-03-07T11:14:54;14.80;55.80
19060;DHT22;9663;48.996;8.334;2024-03-07T11:17:22;14.80;56.10
19060;DHT22;9663;48.996;8.334;2024-03-07T11:19:48;14.90;56.30
19060;DHT22;9663;48.996;8.334;2024-03-07T11:22:31;15.00;56.10
19060;DHT22;9663;48.996;8.334;2024-03-07T11:25:05;15.20;55.30
19060;DHT22;9663;48.996;8.334;2024-03-07T11:27:39;15.30;55.70
19060;DHT22;9663;48.996;8.334;2024-03-07T11:30:09;15.40;55.80
19060;DHT22;9663;48.996;8.334;2024-03-07T11:32:37;15.60;56.10
19060;DHT22;9663;48.996;8.334;2024-03-07T11:35:33;16.10;55.20
19060;DHT22;9663;48.996;8.334;2024-03-07T11:38:02;16.70;55.10
19060;DHT22;9663;48.996;8.334;2024-03-07T11:42:57;17.90;54.70
19060;DHT22;9663;48.996;8.334;2024-03-07T11:45:30;18.30;53.50
19060;DHT22;9663;48.996;8.334;2024-03-07T11:48:10;18.40;52.90
19060;DHT22;9663;48.996;8.334;2024-03-07T11:50:37;18.40;52.70
19060;DHT22;9663;48.996;8.334;2024-03-07T11:53:07;18.40;52.60
19060;DHT22;9663;48.996;8.334;2024-03-07T11:55:35;18.30;52.20
19060;DHT22;9663;48.996;8.334;2024-03-07T11:58:17;18.20;52.10
19060;DHT22;9663;48.996;8.334;2024-03-07T12:00:47;18.10;51.40
19060;DHT22;9663;48.996;8.334;2024-03-07T12:03:15;18.00;52.00
19060;DHT22;9663;48.996;8.334;2024-03-07T12:05:49;17.90;52.30
19060;DHT22;9663;48.996;8.334;2024-03-07T12:08:18;17.70;52.00
19060;DHT22;9663;48.996;8.334;2024-03-07T12:10:48;17.60;51.90
19060;DHT22;9663;48.996;8.334;2024-03-07T12:13:17;17.40;51.90
19060;DHT22;9663;48.996;8.334;2024-03-07T12:15:45;17.20;52.10
19060;DHT22;9663;48.996;8.334;2024-03-07T12:18:12;17.10;52.10
19060;DHT22;9663;48.996;8.334;2024-03-07T12:20:40;16.90;52.00
19060;DHT22;9663;48.996;8.334;2024-03-07T12:23:08;16.80;52.30
19060;DHT22;9663;48.996;8.334;2024-03-07T12:25:35;16.70;52.80
19060;DHT22;9663;48.996;8.334;2024-03-07T12:28:10;16.50;52.20
19060;DHT22;9663;48.996;8.334;2024-03-07T12:30:50;16.40;52.40
19060;DHT22;9663;48.996;8.334;2024-03-07T12:33:18;16.40;52.10
19060;DHT22;9663;48.996;8.334;2024-03-07T12:35:49;16.30;52.50
19060;DHT22;9663;48.996;8.334;2024-03-07T12:38:21;16.20;52.30
19060;DHT22;9663;48.996;8.334;2024-03-07T12:41:02;16.10;52.40
19060;DHT22;9663;48.996;8.334;2024-03-07T12:43:33;16.00;51.90
19060;DHT22;9663;48.996;8.334;2024-03-07T12:45:58;15.90;52.70
19060;DHT22;9663;48.996;8.334;2024-03-07T12:48:25;15.90;52.70
19060;DHT22;9663;48.996;8.334;2024-03-07T12:50:52;15.80;52.90
19060;DHT22;9663;48.996;8.334;2024-03-07T12:53:21;15.80;53.00
19060;DHT22;9663;48.996;8.334;2024-03-07T12:55:54;15.80;53.10
19060;DHT22;9663;48.996;8.334;2024-03-07T12:58:20;15.70;53.10
19060;DHT22;9663;48.996;8.334;2024-03-07T13:00:51;15.80;53.30
19060;DHT22;9663;48.996;8.334;2024-03-07T13:03:17;15.80;53.30
19060;DHT22;9663;48.996;8.334;2024-03-07T13:05:43;15.80;53.10
19060;DHT22;9663;48.996;8.334;2024-03-07T13:08:10;15.80;53.10
19060;DHT22;9663;48.996;8.334;2024-03-07T13:10:39;15.90;53.10
19060;DHT22;9663;48.996;8.334;2024-03-07T13:13:07;15.90;53.00
19060;DHT22;9663;48.996;8.334;2024-03-07T13:15:38;15.90;52.80
19060;DHT22;9663;48.996;8.334;2024-03-07T13:18:06;16.00;52.90
19060;DHT22;9663;48.996;8.334;2024-03-07T13:20:34;16.20;54.00
19060;DHT22;9663;48.996;8.334;2024-03-07T13:23:02;16.60;54.30
19060;DHT22;9663;48.996;8.334;2024-03-07T13:25:29;17.10;53.70
19060;DHT22;9663;48.996;8.334;2024-03-07T13:28:12;17.60;51.20
19060;DHT22;9663;48.996;8.334;2024-03-07T13:30:42;17.80;50.90
19060;DHT22;9663;48.996;8.334;2024-03-07T13:33:09;17.80;50.70
19060;DHT22;9663;48.996;8.334;2024-03-07T13:35:38;17.90;51.10
19060;DHT22;9663;48.996;8.334;2024-03-07T13:38:04;18.00;50.80
19060;DHT22;9663;48.996;8.334;2024-03-07T13:40:30;18.30;51.20
19060;DHT22;9663;48.996;8.334;2024-03-07T13:42:59;18.50;50.40
19060;DHT22;9663;48.996;8.334;2024-03-07T13:45:28;18.40;49.60
19060;DHT22;9663;48.996;8.334;2024-03-07T13:47:58;18.30;49.50
19060;DHT22;9663;48.996;8.334;2024-03-07T13:50:28;18.00;49.20
19060;DHT22;9663;48.996;8.334;2024-03-07T13:52:54;17.70;49.20
19060;DHT22;9663;48.996;8.334;2024-03-07T14:02:17;17.00;49.60
19060;DHT22;9663;48.996;8.334;2024-03-07T14:24:53;16.40;50.50
19060;DHT22;9663;48.996;8.334;2024-03-07T14:27:35;16.40;50.20
19060;DHT22;9663;48.996;8.334;2024-03-07T14:33:10;16.30;50.50
19060;DHT22;9663;48.996;8.334;2024-03-07T14:36:00;16.40;49.70
19060;DHT22;9663;48.996;8.334;2024-03-07T14:38:44;16.40;49.50
19060;DHT22;9663;48.996;8.334;2024-03-07T14:41:18;16.40;49.70
19060;DHT22;9663;48.996;8.334;2024-03-07T14:43:45;16.30;50.00
19060;DHT22;9663;48.996;8.334;2024-03-07T14:46:11;16.20;50.00
19060;DHT22;9663;48.996;8.334;2024-03-07T14:48:39;16.10;50.10
19060;DHT22;9663;48.996;8.334;2024-03-07T14:51:07;16.00;50.30
19060;DHT22;9663;48.996;8.334;2024-03-07T14:53:35;16.00;50.40
19060;DHT22;9663;48.996;8.334;2024-03-07T14:56:01;16.00;50.70
19060;DHT22;9663;48.996;8.334;2024-03-07T14:58:26;16.10;50.60
19060;DHT22;9663;48.996;8.334;2024-03-07T15:00:52;16.10;50.70
19060;DHT22;9663;48.996;8.334;2024-03-07T15:03:20;16.10;50.70
19060;DHT22;9663;48.996;8.334;2024-03-07T15:05:46;16.10;50.60
19060;DHT22;9663;48.996;8.334;2024-03-07T15:08:16;16.00;50.60
19060;DHT22;9663;48.996;8.334;2024-03-07T15:10:50;16.00;50.50
19060;DHT22;9663;48.996;8.334;2024-03-07T15:13:21;15.90;50.30
19060;DHT22;9663;48.996;8.334;2024-03-07T15:15:47;15.90;50.50
19060;DHT22;9663;48.996;8.334;2024-03-07T15:18:12;15.80;50.60
19060;DHT22;9663;48.996;8.334;2024-03-07T15:20:38;15.70;50.60
19060;DHT22;9663;48.996;8.334;2024-03-07T15:23:04;15.60;50.50
19060;DHT22;9663;48.996;8.334;2024-03-07T15:25:31;15.50;50.60
19060;DHT22;9663;48.996;8.334;2024-03-07T15:28:02;15.40;50.60
19060;DHT22;9663;48.996;8.334;2024-03-07T15:30:29;15.30;50.70
19060;DHT22;9663;48.996;8.334;2024-03-07T15:33:00;15.30;50.80
19060;DHT22;9663;48.996;8.334;2024-03-07T15:35:27;15.20;50.70
19060;DHT22;9663;48.996;8.334;2024-03-07T15:37:53;15.10;50.80
19060;DHT22;9663;48.996;8.334;2024-03-07T15:40:21;15.00;50.90
19060;DHT22;9663;48.996;8.334;2024-03-07T15:42:47;14.90;50.70
19060;DHT22;9663;48.996;8.334;2024-03-07T15:45:18;14.90;51.00
19060;DHT22;9663;48.996;8.334;2024-03-07T15:47:45;14.90;51.10
19060;DHT22;9663;48.996;8.334;2024-03-07T15:50:12;14.90;51.20
19060;DHT22;9663;48.996;8.334;2024-03-07T15:52:41;14.90;51.10
19060;DHT22;9663;48.996;8.334;2024-03-07T15:55:11;14.80;51.00
19060;DHT22;9663;48.996;8.334;2024-03-07T15:57:51;14.80;50.90
19060;DHT22;9663;48.996;8.334;2024-03-07T16:00:25;14.80;50.90
19060;DHT22;9663;48.996;8.334;2024-03-07T16:02:56;14.80;51.00
19060;DHT22;9663;48.996;8.334;2024-03-07T16:05:24;14.80;51.10
19060;DHT22;9663;48.996;8.334;2024-03-07T16:07:52;14.70;51.20
19060;DHT22;9663;48.996;8.334;2024-03-07T16:10:19;14.70;51.30
19060;DHT22;9663;48.996;8.334;2024-03-07T16:12:46;14.80;51.70
19060;DHT22;9663;48.996;8.334;2024-03-07T16:15:12;14.90;51.70
19060;DHT22;9663;48.996;8.334;2024-03-07T16:17:38;15.00;51.60
19060;DHT22;9663;48.996;8.334;2024-03-07T16:20:05;15.10;51.40
19060;DHT22;9663;48.996;8.334;2024-03-07T16:22:38;15.10;51.30
19060;DHT22;9663;48.996;8.334;2024-03-07T16:25:06;15.20;51.10
19060;DHT22;9663;48.996;8.334;2024-03-07T16:27:32;15.20;51.10
19060;DHT22;9663;48.996;8.334;2024-03-07T16:29:58;15.50;50.70
19060;DHT22;9663;48.996;8.334;2024-03-07T16:32:23;15.50;50.90
19060;DHT22;9663;48.996;8.334;2024-03-07T16:34:49;15.60;50.70
19060;DHT22;9663;48.996;8.334;2024-03-07T16:37:15;15.90;50.30
19060;DHT22;9663;48.996;8.334;2024-03-07T16:39:41;15.90;50.30
19060;DHT22;9663;48.996;8.334;2024-03-07T16:42:09;15.90;49.80